sensor_id;sensor_type;location;lat;lon;timestamp;P1;durP1;ratioP1;P2;durP2;ratioP2
76284;SDS011;65096;50.998;7.098;2023-05-24T00:01:46;8.40;;;2.20;;
76284;SDS011;65096;50.998;7.098;2023-05-24T00:04:13;8.52;;;2.25;;
76284;SDS011;65096;50.998;7.098;2023-05-24T00:06:40;9.32;;;2.15;;
76284;SDS011;65096;50.998;7.098;2023-05-24T00:09:08;7.43;;;2.00;;
76284;SDS011;65096;50.998;7.098;2023-05-24T00:11:37;7.10;;;2.03;;
76284;SDS011;65096;50.998;7.098;2023-05-24T00:14:04;9.95;;;2.17;;
76284;SDS011;65096;50.998;7.098;2023-05-24T00:16:30;9.30;;;2.17;;
76284;SDS011;65096;50.998;7.098;2023-05-24T00:18:57;14.70;;;2.50;;
76284;SDS011;65096;50.998;7.098;2023-05-24T00:21:24;5.75;;;1.70;;
76284;SDS011;65096;50.998;7.098;2023-05-24T00:23:50;8.60;;;1.92;;
76284;SDS011;65096;50.998;7.098;2023-05-24T00:26:17;7.38;;;1.95;;
76284;SDS011;65096;50.998;7.098;2023-05-24T00:28:45;9.88;;;2.25;;
76284;SDS011;65096;50.998;7.098;2023-05-24T00:31:12;9.60;;;2.15;;
76284;SDS011;65096;50.998;7.098;2023-05-24T00:33:39;9.10;;;2.20;;
76284;SDS011;65096;50.998;7.098;2023-05-24T00:36:05;11.00;;;1.90;;
76284;SDS011;65096;50.998;7.098;2023-05-24T00:38:33;9.93;;;2.15;;
76284;SDS011;65096;50.998;7.098;2023-05-24T00:41:00;9.52;;;2.25;;
76284;SDS011;65096;50.998;7.098;2023-05-24T00:43:27;9.90;;;2.40;;
76284;SDS011;65096;50.998;7.098;2023-05-24T00:45:59;8.98;;;2.05;;
76284;SDS011;65096;50.998;7.098;2023-05-24T00:48:38;6.90;;;1.90;;
76284;SDS011;65096;50.998;7.098;2023-05-24T00:51:05;7.47;;;2.22;;
76284;SDS011;65096;50.998;7.098;2023-05-24T00:53:32;7.50;;;1.70;;
76284;SDS011;65096;50.998;7.098;2023-05-24T00:56:00;9.38;;;2.10;;
76284;SDS011;65096;50.998;7.098;2023-05-24T00:58:28;8.02;;;1.95;;
76284;SDS011;65096;50.998;7.098;2023-05-24T01:00:57;10.13;;;1.95;;
76284;SDS011;65096;50.998;7.098;2023-05-24T01:03:25;5.40;;;1.80;;
76284;SDS011;65096;50.998;7.098;2023-05-24T01:05:53;10.38;;;2.25;;
76284;SDS011;65096;50.998;7.098;2023-05-24T01:08:22;7.97;;;2.17;;
76284;SDS011;65096;50.998;7.098;2023-05-24T01:11:08;7.25;;;2.15;;
76284;SDS011;65096;50.998;7.098;2023-05-24T01:13:43;6.43;;;1.70;;
76284;SDS011;65096;50.998;7.098;2023-05-24T01:16:21;8.05;;;1.83;;
76284;SDS011;65096;50.998;7.098;2023-05-24T01:18:51;9.10;;;2.10;;
76284;SDS011;65096;50.998;7.098;2023-05-24T01:21:29;10.45;;;1.85;;
76284;SDS011;65096;50.998;7.098;2023-05-24T01:24:13;5.60;;;1.67;;
76284;SDS011;65096;50.998;7.098;2023-05-24T01:26:59;8.05;;;2.20;;
76284;SDS011;65096;50.998;7.098;2023-05-24T01:29:30;9.13;;;2.42;;
76284;SDS011;65096;50.998;7.098;2023-05-24T01:31:58;7.47;;;1.92;;
76284;SDS011;65096;50.998;7.098;2023-05-24T01:34:26;7.32;;;1.75;;
76284;SDS011;65096;50.998;7.098;2023-05-24T01:36:53;9.07;;;2.10;;
76284;SDS011;65096;50.998;7.098;2023-05-24T01:39:20;7.53;;;1.90;;
76284;SDS011;65096;50.998;7.098;2023-05-24T01:41:50;8.57;;;2.03;;
76284;SDS011;65096;50.998;7.098;2023-05-24T01:44:33;8.68;;;2.50;;
76284;SDS011;65096;50.998;7.098;2023-05-24T01:47:03;7.53;;;1.88;;
76284;SDS011;65096;50.998;7.098;2023-05-24T01:54:42;10.93;;;2.20;;
76284;SDS011;65096;50.998;7.098;2023-05-24T01:57:15;5.78;;;1.60;;
76284;SDS011;65096;50.998;7.098;2023-05-24T01:59:44;8.88;;;2.20;;
76284;SDS011;65096;50.998;7.098;2023-05-24T02:02:12;8.75;;;2.00;;
76284;SDS011;65096;50.998;7.098;2023-05-24T02:04:39;9.98;;;2.08;;
76284;SDS011;65096;50.998;7.098;2023-05-24T02:07:05;10.45;;;1.80;;
76284;SDS011;65096;50.998;7.098;2023-05-24T02:09:32;6.80;;;2.20;;
76284;SDS011;65096;50.998;7.098;2023-05-24T02:11:59;6.50;;;1.95;;
76284;SDS011;65096;50.998;7.098;2023-05-24T02:14:27;9.13;;;1.88;;
76284;SDS011;65096;50.998;7.098;2023-05-24T02:16:54;8.77;;;2.40;;
76284;SDS011;65096;50.998;7.098;2023-05-24T02:19:22;5.50;;;1.70;;
76284;SDS011;65096;50.998;7.098;2023-05-24T02:21:49;9.73;;;2.00;;
76284;SDS011;65096;50.998;7.098;2023-05-24T02:24:17;7.35;;;1.90;;
76284;SDS011;65096;50.998;7.098;2023-05-24T02:26:43;7.50;;;2.38;;
76284;SDS011;65096;50.998;7.098;2023-05-24T02:29:10;7.95;;;1.90;;
76284;SDS011;65096;50.998;7.098;2023-05-24T02:31:38;9.35;;;2.13;;
76284;SDS011;65096;50.998;7.098;2023-05-24T02:34:05;6.10;;;2.05;;
76284;SDS011;65096;50.998;7.098;2023-05-24T02:36:31;8.50;;;2.00;;
76284;SDS011;65096;50.998;7.098;2023-05-24T02:39:00;8.27;;;1.95;;
76284;SDS011;65096;50.998;7.098;2023-05-24T02:41:28;6.20;;;1.67;;
76284;SDS011;65096;50.998;7.098;2023-05-24T02:43:55;7.70;;;1.80;;
76284;SDS011;65096;50.998;7.098;2023-05-24T02:46:22;8.30;;;1.92;;
76284;SDS011;65096;50.998;7.098;2023-05-24T02:48:50;5.70;;;1.70;;
76284;SDS011;65096;50.998;7.098;2023-05-24T02:51:16;8.75;;;1.70;;
76284;SDS011;65096;50.998;7.098;2023-05-24T02:53:43;5.63;;;1.55;;
76284;SDS011;65096;50.998;7.098;2023-05-24T02:56:10;7.07;;;2.03;;
76284;SDS011;65096;50.998;7.098;2023-05-24T02:58:37;6.30;;;1.83;;
76284;SDS011;65096;50.998;7.098;2023-05-24T03:01:05;7.60;;;1.95;;
76284;SDS011;65096;50.998;7.098;2023-05-24T03:03:32;7.13;;;1.83;;
76284;SDS011;65096;50.998;7.098;2023-05-24T03:06:00;6.07;;;1.70;;
76284;SDS011;65096;50.998;7.098;2023-05-24T03:08:27;9.27;;;1.98;;
76284;SDS011;65096;50.998;7.098;2023-05-24T03:10:53;7.47;;;2.13;;
76284;SDS011;65096;50.998;7.098;2023-05-24T03:13:20;7.78;;;2.00;;
76284;SDS011;65096;50.998;7.098;2023-05-24T03:15:47;11.00;;;1.90;;
76284;SDS011;65096;50.998;7.098;2023-05-24T03:18:14;8.77;;;2.03;;
76284;SDS011;65096;50.998;7.098;2023-05-24T03:20:40;7.90;;;2.00;;
76284;SDS011;65096;50.998;7.098;2023-05-24T03:23:08;9.88;;;2.35;;
76284;SDS011;65096;50.998;7.098;2023-05-24T03:25:35;8.45;;;2.08;;
76284;SDS011;65096;50.998;7.098;2023-05-24T03:28:02;7.88;;;1.92;;
76284;SDS011;65096;50.998;7.098;2023-05-24T03:30:29;10.02;;;2.13;;
76284;SDS011;65096;50.998;7.098;2023-05-24T03:32:56;9.48;;;2.63;;
76284;SDS011;65096;50.998;7.098;2023-05-24T03:35:22;7.20;;;1.63;;
76284;SDS011;65096;50.998;7.098;2023-05-24T03:37:49;9.32;;;2.00;;
76284;SDS011;65096;50.998;7.098;2023-05-24T03:40:18;9.63;;;2.70;;
76284;SDS011;65096;50.998;7.098;2023-05-24T03:42:44;10.50;;;2.90;;
76284;SDS011;65096;50.998;7.098;2023-05-24T03:45:11;11.20;;;2.25;;
76284;SDS011;65096;50.998;7.098;2023-05-24T03:47:38;8.77;;;2.10;;
76284;SDS011;65096;50.998;7.098;2023-05-24T03:50:05;8.13;;;2.30;;
76284;SDS011;65096;50.998;7.098;2023-05-24T03:52:32;8.15;;;2.35;;
76284;SDS011;65096;50.998;7.098;2023-05-24T03:54:58;6.82;;;1.77;;
76284;SDS011;65096;50.998;7.098;2023-05-24T03:57:26;4.15;;;1.73;;
76284;SDS011;65096;50.998;7.098;2023-05-24T03:59:53;6.85;;;1.80;;
76284;SDS011;65096;50.998;7.098;2023-05-24T04:02:20;9.77;;;2.13;;
76284;SDS011;65096;50.998;7.098;2023-05-24T04:04:46;6.18;;;1.98;;
76284;SDS011;65096;50.998;7.098;2023-05-24T04:07:13;7.10;;;1.92;;
76284;SDS011;65096;50.998;7.098;2023-05-24T04:09:40;9.45;;;2.42;;
76284;SDS011;65096;50.998;7.098;2023-05-24T04:12:07;8.38;;;1.90;;
76284;SDS011;65096;50.998;7.098;2023-05-24T04:14:36;8.52;;;2.03;;
76284;SDS011;65096;50.998;7.098;2023-05-24T04:17:03;6.93;;;2.00;;
76284;SDS011;65096;50.998;7.098;2023-05-24T04:19:31;7.00;;;2.30;;
76284;SDS011;65096;50.998;7.098;2023-05-24T04:21:58;11.95;;;2.55;;
76284;SDS011;65096;50.998;7.098;2023-05-24T04:24:25;10.00;;;2.30;;
76284;SDS011;65096;50.998;7.098;2023-05-24T04:26:51;11.52;;;2.10;;
76284;SDS011;65096;50.998;7.098;2023-05-24T04:29:18;10.10;;;2.33;;
76284;SDS011;65096;50.998;7.098;2023-05-24T04:31:46;10.25;;;2.03;;
76284;SDS011;65096;50.998;7.098;2023-05-24T04:34:14;8.70;;;2.55;;
76284;SDS011;65096;50.998;7.098;2023-05-24T04:36:40;10.25;;;2.45;;
76284;SDS011;65096;50.998;7.098;2023-05-24T04:39:07;12.60;;;2.80;;
76284;SDS011;65096;50.998;7.098;2023-05-24T04:41:35;11.48;;;2.30;;
76284;SDS011;65096;50.998;7.098;2023-05-24T04:44:03;8.43;;;2.15;;
76284;SDS011;65096;50.998;7.098;2023-05-24T04:46:30;7.93;;;2.30;;
76284;SDS011;65096;50.998;7.098;2023-05-24T04:49:00;9.02;;;2.50;;
76284;SDS011;65096;50.998;7.098;2023-05-24T04:51:27;7.45;;;2.53;;
76284;SDS011;65096;50.998;7.098;2023-05-24T04:53:54;11.13;;;2.70;;
76284;SDS011;65096;50.998;7.098;2023-05-24T04:56:21;10.05;;;2.70;;
76284;SDS011;65096;50.998;7.098;2023-05-24T04:58:47;10.90;;;2.83;;
76284;SDS011;65096;50.998;7.098;2023-05-24T05:01:14;12.30;;;3.53;;
76284;SDS011;65096;50.998;7.098;2023-05-24T05:03:40;8.55;;;2.30;;
76284;SDS011;65096;50.998;7.098;2023-05-24T05:06:11;8.52;;;2.20;;
76284;SDS011;65096;50.998;7.098;2023-05-24T05:08:37;9.57;;;2.28;;
76284;SDS011;65096;50.998;7.098;2023-05-24T05:11:04;8.75;;;2.60;;
76284;SDS011;65096;50.998;7.098;2023-05-24T05:13:31;12.98;;;2.88;;
76284;SDS011;65096;50.998;7.098;2023-05-24T05:15:58;10.23;;;2.55;;
76284;SDS011;65096;50.998;7.098;2023-05-24T05:18:25;12.05;;;4.25;;
76284;SDS011;65096;50.998;7.098;2023-05-24T05:20:51;8.38;;;3.28;;
76284;SDS011;65096;50.998;7.098;2023-05-24T05:23:19;10.38;;;3.25;;
76284;SDS011;65096;50.998;7.098;2023-05-24T05:25:46;16.65;;;4.53;;
76284;SDS011;65096;50.998;7.098;2023-05-24T05:28:13;12.25;;;3.03;;
76284;SDS011;65096;50.998;7.098;2023-05-24T05:30:39;10.27;;;2.67;;
76284;SDS011;65096;50.998;7.098;2023-05-24T05:33:06;12.68;;;3.13;;
76284;SDS011;65096;50.998;7.098;2023-05-24T05:35:33;9.65;;;2.78;;
76284;SDS011;65096;50.998;7.098;2023-05-24T05:38:00;15.90;;;4.43;;
76284;SDS011;65096;50.998;7.098;2023-05-24T05:40:28;9.88;;;2.83;;
76284;SDS011;65096;50.998;7.098;2023-05-24T05:42:54;11.93;;;3.20;;
76284;SDS011;65096;50.998;7.098;2023-05-24T05:45:21;13.93;;;3.33;;
76284;SDS011;65096;50.998;7.098;2023-05-24T05:47:47;12.95;;;3.30;;
76284;SDS011;65096;50.998;7.098;2023-05-24T05:50:15;10.38;;;3.38;;
76284;SDS011;65096;50.998;7.098;2023-05-24T05:52:42;10.77;;;3.25;;
76284;SDS011;65096;50.998;7.098;2023-05-24T05:55:08;14.82;;;3.30;;
76284;SDS011;65096;50.998;7.098;2023-05-24T05:57:37;14.98;;;3.40;;
76284;SDS011;65096;50.998;7.098;2023-05-24T06:00:04;11.82;;;3.22;;
76284;SDS011;65096;50.998;7.098;2023-05-24T06:02:33;11.85;;;3.00;;
76284;SDS011;65096;50.998;7.098;2023-05-24T06:05:00;15.88;;;3.22;;
76284;SDS011;65096;50.998;7.098;2023-05-24T06:07:27;14.02;;;3.47;;
76284;SDS011;65096;50.998;7.098;2023-05-24T06:09:54;16.33;;;3.58;;
76284;SDS011;65096;50.998;7.098;2023-05-24T06:12:21;12.32;;;3.28;;
76284;SDS011;65096;50.998;7.098;2023-05-24T06:14:49;14.02;;;3.20;;
76284;SDS011;65096;50.998;7.098;2023-05-24T06:17:16;13.70;;;3.70;;
76284;SDS011;65096;50.998;7.098;2023-05-24T06:19:43;14.30;;;3.40;;
76284;SDS011;65096;50.998;7.098;2023-05-24T06:22:10;16.40;;;4.22;;
76284;SDS011;65096;50.998;7.098;2023-05-24T06:24:37;13.80;;;4.30;;
76284;SDS011;65096;50.998;7.098;2023-05-24T06:27:04;9.90;;;3.45;;
76284;SDS011;65096;50.998;7.098;2023-05-24T06:29:30;18.30;;;4.47;;
76284;SDS011;65096;50.998;7.098;2023-05-24T06:31:58;17.08;;;3.90;;
76284;SDS011;65096;50.998;7.098;2023-05-24T06:34:25;14.85;;;3.17;;
76284;SDS011;65096;50.998;7.098;2023-05-24T06:36:53;12.48;;;3.53;;
76284;SDS011;65096;50.998;7.098;2023-05-24T06:39:20;9.80;;;3.38;;
76284;SDS011;65096;50.998;7.098;2023-05-24T06:41:49;17.63;;;4.13;;
76284;SDS011;65096;50.998;7.098;2023-05-24T06:44:17;14.77;;;3.30;;
76284;SDS011;65096;50.998;7.098;2023-05-24T06:46:44;12.60;;;3.38;;
76284;SDS011;65096;50.998;7.098;2023-05-24T06:49:13;13.35;;;3.25;;
76284;SDS011;65096;50.998;7.098;2023-05-24T06:51:40;17.75;;;3.20;;
76284;SDS011;65096;50.998;7.098;2023-05-24T06:54:06;13.20;;;3.30;;
76284;SDS011;65096;50.998;7.098;2023-05-24T06:56:33;19.60;;;3.88;;
76284;SDS011;65096;50.998;7.098;2023-05-24T06:58:59;15.10;;;4.07;;
76284;SDS011;65096;50.998;7.098;2023-05-24T07:01:26;14.02;;;3.55;;
76284;SDS011;65096;50.998;7.098;2023-05-24T07:03:53;15.73;;;3.75;;
76284;SDS011;65096;50.998;7.098;2023-05-24T07:06:21;14.98;;;3.33;;
76284;SDS011;65096;50.998;7.098;2023-05-24T07:08:49;16.90;;;3.35;;
76284;SDS011;65096;50.998;7.098;2023-05-24T07:11:15;14.45;;;3.40;;
76284;SDS011;65096;50.998;7.098;2023-05-24T07:13:42;17.98;;;3.83;;
76284;SDS011;65096;50.998;7.098;2023-05-24T07:16:09;10.07;;;2.90;;
76284;SDS011;65096;50.998;7.098;2023-05-24T07:18:35;14.68;;;3.85;;
76284;SDS011;65096;50.998;7.098;2023-05-24T07:21:02;14.77;;;3.42;;
76284;SDS011;65096;50.998;7.098;2023-05-24T07:23:30;14.82;;;3.30;;
76284;SDS011;65096;50.998;7.098;2023-05-24T07:25:57;14.52;;;4.03;;
76284;SDS011;65096;50.998;7.098;2023-05-24T07:28:24;16.48;;;3.95;;
76284;SDS011;65096;50.998;7.098;2023-05-24T07:30:51;15.73;;;3.20;;
76284;SDS011;65096;50.998;7.098;2023-05-24T07:33:18;15.23;;;3.55;;
76284;SDS011;65096;50.998;7.098;2023-05-24T07:35:45;13.45;;;3.00;;
76284;SDS011;65096;50.998;7.098;2023-05-24T07:38:15;14.55;;;3.67;;
76284;SDS011;65096;50.998;7.098;2023-05-24T07:40:43;15.98;;;3.60;;
76284;SDS011;65096;50.998;7.098;2023-05-24T07:43:10;14.25;;;4.13;;
76284;SDS011;65096;50.998;7.098;2023-05-24T07:45:37;16.83;;;3.35;;
76284;SDS011;65096;50.998;7.098;2023-05-24T07:48:03;15.35;;;3.92;;
76284;SDS011;65096;50.998;7.098;2023-05-24T07:50:30;19.50;;;3.58;;
76284;SDS011;65096;50.998;7.098;2023-05-24T07:52:57;14.88;;;4.07;;
76284;SDS011;65096;50.998;7.098;2023-05-24T07:55:24;12.20;;;3.42;;
76284;SDS011;65096;50.998;7.098;2023-05-24T07:57:53;17.00;;;3.65;;
76284;SDS011;65096;50.998;7.098;2023-05-24T08:00:20;13.32;;;4.20;;
76284;SDS011;65096;50.998;7.098;2023-05-24T08:02:47;16.52;;;3.80;;
76284;SDS011;65096;50.998;7.098;2023-05-24T08:05:14;13.75;;;4.35;;
76284;SDS011;65096;50.998;7.098;2023-05-24T08:07:41;16.27;;;3.63;;
76284;SDS011;65096;50.998;7.098;2023-05-24T08:10:08;16.73;;;4.28;;
76284;SDS011;65096;50.998;7.098;2023-05-24T08:12:36;16.55;;;4.45;;
76284;SDS011;65096;50.998;7.098;2023-05-24T08:15:05;17.25;;;4.18;;
76284;SDS011;65096;50.998;7.098;2023-05-24T08:17:32;18.80;;;4.35;;
76284;SDS011;65096;50.998;7.098;2023-05-24T08:19:59;14.07;;;3.92;;
76284;SDS011;65096;50.998;7.098;2023-05-24T08:22:26;14.05;;;4.03;;
76284;SDS011;65096;50.998;7.098;2023-05-24T08:24:52;16.17;;;3.85;;
76284;SDS011;65096;50.998;7.098;2023-05-24T08:27:19;12.90;;;3.83;;
76284;SDS011;65096;50.998;7.098;2023-05-24T08:29:46;14.93;;;4.03;;
76284;SDS011;65096;50.998;7.098;2023-05-24T08:32:14;14.20;;;3.55;;
76284;SDS011;65096;50.998;7.098;2023-05-24T08:34:41;17.88;;;3.88;;
76284;SDS011;65096;50.998;7.098;2023-05-24T08:37:08;14.60;;;3.60;;
76284;SDS011;65096;50.998;7.098;2023-05-24T08:39:35;14.63;;;3.60;;
76284;SDS011;65096;50.998;7.098;2023-05-24T08:42:02;15.63;;;4.05;;
76284;SDS011;65096;50.998;7.098;2023-05-24T08:44:33;13.82;;;4.10;;
76284;SDS011;65096;50.998;7.098;2023-05-24T08:47:04;15.23;;;3.53;;
76284;SDS011;65096;50.998;7.098;2023-05-24T08:49:34;11.70;;;3.10;;
76284;SDS011;65096;50.998;7.098;2023-05-24T08:52:01;12.32;;;3.80;;
76284;SDS011;65096;50.998;7.098;2023-05-24T08:54:29;11.23;;;3.13;;
76284;SDS011;65096;50.998;7.098;2023-05-24T08:56:56;12.68;;;4.15;;
76284;SDS011;65096;50.998;7.098;2023-05-24T08:59:24;11.52;;;3.13;;
76284;SDS011;65096;50.998;7.098;2023-05-24T09:01:51;12.43;;;3.25;;
76284;SDS011;65096;50.998;7.098;2023-05-24T09:04:19;14.57;;;3.45;;
76284;SDS011;65096;50.998;7.098;2023-05-24T09:06:49;14.07;;;4.03;;
76284;SDS011;65096;50.998;7.098;2023-05-24T09:09:17;10.77;;;3.40;;
76284;SDS011;65096;50.998;7.098;2023-05-24T09:11:46;12.65;;;3.60;;
76284;SDS011;65096;50.998;7.098;2023-05-24T09:14:14;10.63;;;2.83;;
76284;SDS011;65096;50.998;7.098;2023-05-24T09:16:42;10.35;;;3.00;;
76284;SDS011;65096;50.998;7.098;2023-05-24T09:19:09;11.35;;;3.28;;
76284;SDS011;65096;50.998;7.098;2023-05-24T09:21:38;9.63;;;2.92;;
76284;SDS011;65096;50.998;7.098;2023-05-24T09:24:07;17.67;;;3.75;;
76284;SDS011;65096;50.998;7.098;2023-05-24T09:26:36;11.75;;;2.83;;
76284;SDS011;65096;50.998;7.098;2023-05-24T09:29:05;11.48;;;3.05;;
76284;SDS011;65096;50.998;7.098;2023-05-24T09:31:32;13.65;;;3.00;;
76284;SDS011;65096;50.998;7.098;2023-05-24T09:33:59;11.40;;;3.53;;
76284;SDS011;65096;50.998;7.098;2023-05-24T09:36:26;11.65;;;3.05;;
76284;SDS011;65096;50.998;7.098;2023-05-24T09:41:46;16.02;;;3.38;;
76284;SDS011;65096;50.998;7.098;2023-05-24T09:44:22;12.30;;;3.13;;
76284;SDS011;65096;50.998;7.098;2023-05-24T09:46:50;15.15;;;3.53;;
76284;SDS011;65096;50.998;7.098;2023-05-24T09:49:17;10.80;;;3.40;;
76284;SDS011;65096;50.998;7.098;2023-05-24T09:51:46;13.73;;;3.25;;
76284;SDS011;65096;50.998;7.098;2023-05-24T09:54:13;12.68;;;3.65;;
76284;SDS011;65096;50.998;7.098;2023-05-24T09:56:42;11.90;;;3.05;;
76284;SDS011;65096;50.998;7.098;2023-05-24T09:59:11;15.70;;;3.15;;
76284;SDS011;65096;50.998;7.098;2023-05-24T10:01:39;12.32;;;2.90;;
76284;SDS011;65096;50.998;7.098;2023-05-24T10:04:05;12.95;;;3.25;;
76284;SDS011;65096;50.998;7.098;2023-05-24T10:06:32;12.50;;;3.72;;
76284;SDS011;65096;50.998;7.098;2023-05-24T10:09:02;9.95;;;3.03;;
76284;SDS011;65096;50.998;7.098;2023-05-24T10:11:34;13.20;;;2.90;;
76284;SDS011;65096;50.998;7.098;2023-05-24T10:14:04;10.77;;;3.20;;
76284;SDS011;65096;50.998;7.098;2023-05-24T10:16:32;10.88;;;3.35;;
76284;SDS011;65096;50.998;7.098;2023-05-24T10:18:58;12.50;;;2.85;;
76284;SDS011;65096;50.998;7.098;2023-05-24T10:21:25;12.35;;;2.75;;
76284;SDS011;65096;50.998;7.098;2023-05-24T10:23:58;10.70;;;3.13;;
76284;SDS011;65096;50.998;7.098;2023-05-24T10:26:27;15.43;;;4.35;;
76284;SDS011;65096;50.998;7.098;2023-05-24T10:28:58;10.00;;;3.05;;
76284;SDS011;65096;50.998;7.098;2023-05-24T10:31:33;8.63;;;2.47;;
76284;SDS011;65096;50.998;7.098;2023-05-24T10:34:04;11.35;;;3.20;;
76284;SDS011;65096;50.998;7.098;2023-05-24T10:36:32;13.85;;;3.42;;
76284;SDS011;65096;50.998;7.098;2023-05-24T10:38:59;13.57;;;3.28;;
76284;SDS011;65096;50.998;7.098;2023-05-24T10:41:27;9.98;;;2.95;;
76284;SDS011;65096;50.998;7.098;2023-05-24T10:43:56;12.48;;;3.55;;
76284;SDS011;65096;50.998;7.098;2023-05-24T10:46:23;9.43;;;2.60;;
76284;SDS011;65096;50.998;7.098;2023-05-24T10:49:00;10.02;;;2.42;;
76284;SDS011;65096;50.998;7.098;2023-05-24T10:51:29;11.55;;;3.13;;
76284;SDS011;65096;50.998;7.098;2023-05-24T10:54:08;12.18;;;3.22;;
76284;SDS011;65096;50.998;7.098;2023-05-24T10:59:05;12.18;;;3.40;;
76284;SDS011;65096;50.998;7.098;2023-05-24T11:01:32;13.88;;;3.10;;
76284;SDS011;65096;50.998;7.098;2023-05-24T11:04:08;10.00;;;2.95;;
76284;SDS011;65096;50.998;7.098;2023-05-24T11:06:45;14.00;;;2.85;;
76284;SDS011;65096;50.998;7.098;2023-05-24T11:09:13;10.48;;;2.75;;
76284;SDS011;65096;50.998;7.098;2023-05-24T11:11:42;11.52;;;2.65;;
76284;SDS011;65096;50.998;7.098;2023-05-24T11:14:10;9.00;;;2.70;;
76284;SDS011;65096;50.998;7.098;2023-05-24T11:16:38;10.88;;;3.10;;
76284;SDS011;65096;50.998;7.098;2023-05-24T11:19:13;9.30;;;2.90;;
76284;SDS011;65096;50.998;7.098;2023-05-24T11:21:42;12.75;;;3.75;;
76284;SDS011;65096;50.998;7.098;2023-05-24T11:24:10;10.05;;;3.00;;
76284;SDS011;65096;50.998;7.098;2023-05-24T11:26:37;13.45;;;2.88;;
76284;SDS011;65096;50.998;7.098;2023-05-24T11:29:04;11.05;;;3.28;;
76284;SDS011;65096;50.998;7.098;2023-05-24T11:31:32;10.25;;;3.10;;
76284;SDS011;65096;50.998;7.098;2023-05-24T11:33:59;11.20;;;3.20;;
76284;SDS011;65096;50.998;7.098;2023-05-24T11:36:27;11.85;;;3.13;;
76284;SDS011;65096;50.998;7.098;2023-05-24T11:38:54;12.80;;;4.00;;
76284;SDS011;65096;50.998;7.098;2023-05-24T11:41:20;12.88;;;3.60;;
76284;SDS011;65096;50.998;7.098;2023-05-24T11:43:47;13.27;;;3.78;;
76284;SDS011;65096;50.998;7.098;2023-05-24T11:46:14;12.10;;;3.50;;
76284;SDS011;65096;50.998;7.098;2023-05-24T11:48:41;10.38;;;3.45;;
76284;SDS011;65096;50.998;7.098;2023-05-24T11:51:08;10.50;;;2.80;;
76284;SDS011;65096;50.998;7.098;2023-05-24T11:53:37;10.13;;;3.00;;
76284;SDS011;65096;50.998;7.098;2023-05-24T11:56:03;13.40;;;3.38;;
76284;SDS011;65096;50.998;7.098;2023-05-24T11:58:31;10.32;;;3.38;;
76284;SDS011;65096;50.998;7.098;2023-05-24T12:01:21;11.23;;;3.40;;
76284;SDS011;65096;50.998;7.098;2023-05-24T12:03:49;10.40;;;3.13;;
76284;SDS011;65096;50.998;7.098;2023-05-24T12:06:17;13.18;;;3.75;;
76284;SDS011;65096;50.998;7.098;2023-05-24T12:08:45;14.82;;;3.35;;
76284;SDS011;65096;50.998;7.098;2023-05-24T12:11:12;12.27;;;3.28;;
76284;SDS011;65096;50.998;7.098;2023-05-24T12:13:40;10.45;;;3.40;;
76284;SDS011;65096;50.998;7.098;2023-05-24T12:16:07;12.13;;;3.83;;
76284;SDS011;65096;50.998;7.098;2023-05-24T12:18:37;13.05;;;3.42;;
76284;SDS011;65096;50.998;7.098;2023-05-24T12:21:05;11.50;;;3.63;;
76284;SDS011;65096;50.998;7.098;2023-05-24T12:23:35;11.27;;;3.65;;
76284;SDS011;65096;50.998;7.098;2023-05-24T12:26:04;11.23;;;3.60;;
76284;SDS011;65096;50.998;7.098;2023-05-24T12:28:32;13.13;;;3.72;;
76284;SDS011;65096;50.998;7.098;2023-05-24T12:31:01;12.55;;;4.07;;
76284;SDS011;65096;50.998;7.098;2023-05-24T12:33:28;9.82;;;3.35;;
76284;SDS011;65096;50.998;7.098;2023-05-24T12:35:55;12.15;;;3.47;;
76284;SDS011;65096;50.998;7.098;2023-05-24T12:38:23;9.88;;;2.92;;
76284;SDS011;65096;50.998;7.098;2023-05-24T12:40:50;11.93;;;3.70;;
76284;SDS011;65096;50.998;7.098;2023-05-24T12:43:19;15.32;;;4.18;;
76284;SDS011;65096;50.998;7.098;2023-05-24T12:45:46;13.32;;;3.40;;
76284;SDS011;65096;50.998;7.098;2023-05-24T12:48:13;14.60;;;3.60;;
76284;SDS011;65096;50.998;7.098;2023-05-24T12:50:40;13.18;;;3.72;;
76284;SDS011;65096;50.998;7.098;2023-05-24T12:53:06;11.27;;;3.17;;
76284;SDS011;65096;50.998;7.098;2023-05-24T12:55:33;11.52;;;3.40;;
76284;SDS011;65096;50.998;7.098;2023-05-24T12:58:00;14.25;;;3.85;;
76284;SDS011;65096;50.998;7.098;2023-05-24T13:00:31;13.43;;;3.53;;
76284;SDS011;65096;50.998;7.098;2023-05-24T13:02:58;12.90;;;3.92;;
76284;SDS011;65096;50.998;7.098;2023-05-24T13:05:25;11.80;;;3.70;;
76284;SDS011;65096;50.998;7.098;2023-05-24T13:07:54;9.55;;;3.25;;
76284;SDS011;65096;50.998;7.098;2023-05-24T13:10:21;12.63;;;3.55;;
76284;SDS011;65096;50.998;7.098;2023-05-24T13:12:48;9.63;;;3.58;;
76284;SDS011;65096;50.998;7.098;2023-05-24T13:15:15;10.65;;;3.65;;
76284;SDS011;65096;50.998;7.098;2023-05-24T13:17:44;9.45;;;3.22;;
76284;SDS011;65096;50.998;7.098;2023-05-24T13:20:11;14.52;;;3.90;;
76284;SDS011;65096;50.998;7.098;2023-05-24T13:22:38;13.77;;;3.60;;
76284;SDS011;65096;50.998;7.098;2023-05-24T13:25:06;11.65;;;3.63;;
76284;SDS011;65096;50.998;7.098;2023-05-24T13:27:34;9.07;;;4.03;;
76284;SDS011;65096;50.998;7.098;2023-05-24T13:30:00;11.10;;;3.25;;
76284;SDS011;65096;50.998;7.098;2023-05-24T13:32:28;11.85;;;3.63;;
76284;SDS011;65096;50.998;7.098;2023-05-24T13:34:57;10.32;;;3.33;;
76284;SDS011;65096;50.998;7.098;2023-05-24T13:37:24;10.48;;;3.42;;
76284;SDS011;65096;50.998;7.098;2023-05-24T13:39:51;14.20;;;3.95;;
76284;SDS011;65096;50.998;7.098;2023-05-24T13:42:18;12.10;;;3.80;;
76284;SDS011;65096;50.998;7.098;2023-05-24T13:44:45;13.18;;;4.00;;
76284;SDS011;65096;50.998;7.098;2023-05-24T13:47:12;11.60;;;3.58;;
76284;SDS011;65096;50.998;7.098;2023-05-24T13:49:40;11.07;;;3.45;;
76284;SDS011;65096;50.998;7.098;2023-05-24T13:52:08;13.80;;;4.43;;
76284;SDS011;65096;50.998;7.098;2023-05-24T13:54:35;12.27;;;3.95;;
76284;SDS011;65096;50.998;7.098;2023-05-24T13:57:02;12.75;;;3.63;;
76284;SDS011;65096;50.998;7.098;2023-05-24T13:59:30;11.80;;;3.70;;
76284;SDS011;65096;50.998;7.098;2023-05-24T14:01:57;12.23;;;3.60;;
76284;SDS011;65096;50.998;7.098;2023-05-24T14:04:24;12.10;;;3.72;;
76284;SDS011;65096;50.998;7.098;2023-05-24T14:06:50;14.65;;;3.45;;
76284;SDS011;65096;50.998;7.098;2023-05-24T14:09:19;12.10;;;3.70;;
76284;SDS011;65096;50.998;7.098;2023-05-24T14:11:46;12.98;;;3.47;;
76284;SDS011;65096;50.998;7.098;2023-05-24T14:14:12;12.55;;;3.30;;
76284;SDS011;65096;50.998;7.098;2023-05-24T14:16:39;11.07;;;3.50;;
76284;SDS011;65096;50.998;7.098;2023-05-24T14:19:06;14.43;;;3.60;;
76284;SDS011;65096;50.998;7.098;2023-05-24T14:21:32;12.52;;;3.60;;
76284;SDS011;65096;50.998;7.098;2023-05-24T14:24:00;12.20;;;3.42;;
76284;SDS011;65096;50.998;7.098;2023-05-24T14:26:29;15.20;;;4.18;;
76284;SDS011;65096;50.998;7.098;2023-05-24T14:28:56;10.75;;;4.18;;
76284;SDS011;65096;50.998;7.098;2023-05-24T14:31:23;10.80;;;3.50;;
76284;SDS011;65096;50.998;7.098;2023-05-24T14:33:49;11.10;;;3.55;;
76284;SDS011;65096;50.998;7.098;2023-05-24T14:36:16;11.45;;;4.15;;
76284;SDS011;65096;50.998;7.098;2023-05-24T14:38:43;12.07;;;3.78;;
76284;SDS011;65096;50.998;7.098;2023-05-24T14:41:10;12.60;;;3.65;;
76284;SDS011;65096;50.998;7.098;2023-05-24T14:43:38;15.18;;;3.75;;
76284;SDS011;65096;50.998;7.098;2023-05-24T14:46:06;9.93;;;3.78;;
76284;SDS011;65096;50.998;7.098;2023-05-24T14:48:33;12.30;;;3.92;;
76284;SDS011;65096;50.998;7.098;2023-05-24T14:51:01;13.90;;;3.83;;
76284;SDS011;65096;50.998;7.098;2023-05-24T14:53:28;12.02;;;3.83;;